| time (UTC) | temp F | wind direction | speed knots | gust knots | rain 1hr in | rain 24hr in | rain mn in | humidity % | barometer mb |
| 20260506050516 | 57 | 0.0 | 0.0 | 0.00 | 0.00 | 0.00 | 41 | 1018.3 | |
| 20260506044517 | 59 | 0.0 | 0.0 | 0.00 | 0.00 | 0.00 | 42 | 1018.3 | |
| 20260506043539 | 60 | 0.0 | 0.0 | 0.00 | 0.00 | 0.00 | 44 | 1018.2 | |
| 20260506042536 | 61 | 0.0 | 0.0 | 0.00 | 0.00 | 0.00 | 43 | 1018.2 | |
| 20260506041520 | 62 | 268 | 0.9 | 1.7 | 0.00 | 0.00 | 0.00 | 41 | 1018.1 |
| 20260506040517 | 62 | 268 | 0.9 | 1.7 | 0.00 | 0.00 | 0.00 | 40 | 1018.0 |
| 20260506035520 | 64 | 0.0 | 0.0 | 0.00 | 0.00 | 0.00 | 40 | 1017.9 | |
| 20260506034517 | 62 | 0.0 | 0.0 | 0.00 | 0.00 | 0.00 | 38 | 1110.6 | |
| 20260506033518 | 55 | 344 | 0.0 | 0.9 | 0.00 | 0.00 | 0.00 | 37 | 1127.3 |
| 20260506032516 | 61 | 312 | 1.7 | 3.5 | 0.00 | 0.00 | 0.00 | 38 | 1103.4 |
| 20260506031517 | 67 | 290 | 1.7 | 4.3 | 0.00 | 0.00 | 0.00 | 37 | 1017.5 |
| 20260506030517 | 64 | 342 | 1.7 | 6.1 | 0.00 | 0.00 | 0.00 | 37 | 1097.1 |
| 20260506025538 | 68 | 263 | 0.9 | 2.6 | 0.00 | 0.00 | 0.00 | 36 | 1017.3 |
| 20260506024518 | 69 | 251 | 0.0 | 0.9 | 0.00 | 0.00 | 0.00 | 35 | 1017.3 |
| 20260506023519 | 69 | 282 | 1.7 | 8.7 | 0.00 | 0.00 | 0.00 | 35 | 1017.0 |
| 20260506022516 | 69 | 318 | 1.7 | 4.3 | 0.00 | 0.00 | 0.00 | 34 | 1017.0 |
| 20260506021516 | 70 | 334 | 1.7 | 5.2 | 0.00 | 0.00 | 0.00 | 33 | 1016.9 |
| 20260506020518 | 70 | 283 | 1.7 | 4.3 | 0.00 | 0.00 | 0.00 | 34 | 1016.9 |
| 20260506015518 | 70 | 289 | 2.6 | 8.7 | 0.00 | 0.00 | 0.00 | 34 | 1016.9 |
| 20260506014539 | 71 | 317 | 3.5 | 7.0 | 0.00 | 0.00 | 0.00 | 34 | 1016.8 |
| 20260506013516 | 71 | 299 | 3.5 | 11.3 | 0.00 | 0.00 | 0.00 | 34 | 1016.7 |
| 20260506012536 | 72 | 308 | 4.3 | 9.6 | 0.00 | 0.00 | 0.00 | 33 | 1016.7 |
| 20260506011516 | 72 | 336 | 2.6 | 7.0 | 0.00 | 0.00 | 0.00 | 32 | 1016.5 |
| 20260506010518 | 73 | 321 | 3.5 | 9.6 | 0.00 | 0.00 | 0.00 | 31 | 1016.3 |
| 20260506005518 | 73 | 343 | 2.6 | 7.8 | 0.00 | 0.00 | 0.00 | 30 | 1016.4 |
| 20260506004516 | 74 | 341 | 3.5 | 8.7 | 0.00 | 0.00 | 0.00 | 29 | 1016.3 |
| 20260506003517 | 74 | 322 | 0.9 | 3.5 | 0.00 | 0.00 | 0.00 | 29 | 1016.1 |
| 20260506002517 | 73 | 335 | 1.7 | 5.2 | 0.00 | 0.00 | 0.00 | 28 | 1016.1 |
| 20260506001516 | 73 | 334 | 3.5 | 7.0 | 0.00 | 0.00 | 0.00 | 28 | 1016.1 |
| 20260506000517 | 74 | 351 | 1.7 | 2.6 | 0.00 | 0.00 | 0.00 | 28 | 1016.0 |
| 20260505235517 | 75 | 62 | 0.9 | 2.6 | 0.00 | 0.00 | 0.00 | 27 | 1016.0 |
| 20260505234517 | 76 | 347 | 3.5 | 7.0 | 0.00 | 0.00 | 0.00 | 26 | 1016.1 |
| 20260505233517 | 76 | 326 | 1.7 | 3.5 | 0.00 | 0.00 | 0.00 | 26 | 1016.1 |
| 20260505232539 | 76 | 338 | 1.7 | 6.1 | 0.00 | 0.00 | 0.00 | 26 | 1016.1 |
| 20260505231516 | 76 | 8 | 0.9 | 3.5 | 0.00 | 0.00 | 0.00 | 26 | 1016.1 |
| 20260505230517 | 76 | 334 | 4.3 | 11.3 | 0.00 | 0.00 | 0.00 | 26 | 1016.2 |
| 20260505225518 | 76 | 347 | 2.6 | 7.0 | 0.00 | 0.00 | 0.00 | 26 | 1016.1 |
| 20260505224519 | 76 | 340 | 2.6 | 8.7 | 0.00 | 0.00 | 0.00 | 26 | 1016.2 |
| 20260505223637 | 76 | 346 | 3.5 | 7.8 | 0.00 | 0.00 | 0.00 | 26 | 1016.3 |
| 20260505222518 | 76 | 339 | 3.5 | 10.4 | 0.00 | 0.00 | 0.00 | 25 | 1016.3 |
| 20260505221520 | 75 | 17 | 0.9 | 4.3 | 0.00 | 0.00 | 0.00 | 26 | 1016.4 |
| 20260505220516 | 74 | 81 | 1.7 | 7.0 | 0.00 | 0.00 | 0.00 | 26 | 1016.4 |
| 20260505215518 | 75 | 325 | 3.5 | 8.7 | 0.00 | 0.00 | 0.00 | 26 | 1016.6 |
| 20260505214559 | 75 | 337 | 1.7 | 5.2 | 0.00 | 0.00 | 0.00 | 27 | 1016.5 |
| 20260505213517 | 74 | 340 | 1.7 | 5.2 | 0.00 | 0.00 | 0.00 | 27 | 1016.6 |
| 20260505212518 | 74 | 317 | 3.5 | 9.6 | 0.00 | 0.00 | 0.00 | 27 | 1016.7 |
| 20260505211517 | 74 | 339 | 0.9 | 3.5 | 0.00 | 0.00 | 0.00 | 27 | 1016.7 |
| 20260505210516 | 74 | 352 | 1.7 | 4.3 | 0.00 | 0.00 | 0.00 | 27 | 1016.7 |
| 20260505205518 | 74 | 24 | 1.7 | 3.5 | 0.00 | 0.00 | 0.00 | 29 | 1016.7 |
| 20260505204517 | 74 | 52 | 0.9 | 2.6 | 0.00 | 0.00 | 0.00 | 29 | 1016.7 |
| 20260505203516 | 73 | 314 | 3.5 | 8.7 | 0.00 | 0.00 | 0.00 | 29 | 1016.7 |
| 20260505202516 | 72 | 319 | 3.5 | 10.4 | 0.00 | 0.00 | 0.00 | 30 | 1016.8 |
| 20260505201516 | 73 | 333 | 1.7 | 7.0 | 0.00 | 0.00 | 0.00 | 30 | 1016.8 |
| 20260505200517 | 73 | 308 | 3.5 | 7.0 | 0.00 | 0.00 | 0.00 | 30 | 1017.0 |
| 20260505195538 | 73 | 333 | 1.7 | 6.1 | 0.00 | 0.00 | 0.00 | 32 | 1017.0 |
| 20260505194538 | 71 | 92 | 1.7 | 5.2 | 0.00 | 0.00 | 0.00 | 32 | 1017.1 |
| 20260505193516 | 71 | 9 | 1.7 | 3.5 | 0.00 | 0.00 | 0.00 | 32 | 1017.1 |
| 20260505192518 | 71 | 4 | 1.7 | 7.8 | 0.00 | 0.00 | 0.00 | 32 | 1017.2 |
| 20260505191556 | 71 | 301 | 2.6 | 5.2 | 0.00 | 0.00 | 0.00 | 33 | 1017.2 |
| 20260505190537 | 70 | 329 | 1.7 | 5.2 | 0.00 | 0.00 | 0.00 | 33 | 1017.2 |
| 20260505185516 | 69 | 339 | 2.6 | 5.2 | 0.00 | 0.00 | 0.00 | 33 | 1017.3 |
| 20260505184518 | 68 | 61 | 1.7 | 4.3 | 0.00 | 0.00 | 0.00 | 33 | 1017.3 |
| 20260505183518 | 68 | 336 | 2.6 | 6.1 | 0.00 | 0.00 | 0.00 | 33 | 1017.4 |
| 20260505182517 | 68 | 322 | 2.6 | 5.2 | 0.00 | 0.00 | 0.00 | 34 | 1017.4 |
| 20260505181518 | 67 | 106 | 0.9 | 4.3 | 0.00 | 0.00 | 0.00 | 34 | 1017.4 |
| 20260505180518 | 66 | 54 | 1.7 | 2.6 | 0.00 | 0.00 | 0.00 | 36 | 1017.4 |
| 20260505175516 | 66 | 135 | 1.7 | 3.5 | 0.00 | 0.00 | 0.00 | 36 | 1017.4 |
| 20260505174518 | 66 | 307 | 1.7 | 4.3 | 0.00 | 0.00 | 0.00 | 36 | 1017.4 |
| 20260505173538 | 64 | 215 | 0.9 | 2.6 | 0.00 | 0.00 | 0.00 | 37 | 1017.5 |
| 20260505172516 | 64 | 95 | 0.9 | 4.3 | 0.00 | 0.00 | 0.00 | 38 | 1017.5 |
| 20260505171536 | 64 | 356 | 0.9 | 3.5 | 0.00 | 0.00 | 0.00 | 38 | 1017.4 |
| 20260505170518 | 64 | 164 | 0.9 | 3.5 | 0.00 | 0.00 | 0.00 | 39 | 1017.5 |
| 20260505165516 | 62 | 164 | 0.0 | 1.7 | 0.00 | 0.00 | 0.00 | 40 | 1017.5 |
| 20260505164518 | 61 | 154 | 0.9 | 4.3 | 0.00 | 0.00 | 0.00 | 40 | 1017.7 |
| 20260505163516 | 61 | 139 | 0.0 | 1.7 | 0.00 | 0.00 | 0.00 | 42 | 1017.6 |
| 20260505162516 | 59 | 139 | 0.0 | 1.7 | 0.00 | 0.00 | 0.00 | 42 | 1017.5 |
| 20260505161517 | 57 | 139 | 0.9 | 2.6 | 0.00 | 0.00 | 0.00 | 46 | 1017.6 |
| 20260505160516 | 57 | 141 | 1.7 | 4.3 | 0.00 | 0.00 | 0.00 | 45 | 1017.6 |
| 20260505152517 | 54 | 0.0 | 0.0 | 0.00 | 0.00 | 0.00 | 47 | 1017.6 | |
| 20260505151538 | 53 | 0.0 | 0.0 | 0.00 | 0.00 | 0.00 | 48 | 1017.5 | |
| 20260505150517 | 52 | 0.0 | 0.0 | 0.00 | 0.00 | 0.00 | 52 | 1017.4 | |
| 20260505140516 | 43 | 0.0 | 0.0 | 0.00 | 0.00 | 0.00 | 63 | 1016.7 | |
| 20260505124517 | 40 | 0.0 | 0.0 | 0.00 | 0.00 | 0.00 | 66 | 1016.1 | |
| 20260505123518 | 39 | 0.0 | 0.0 | 0.00 | 0.00 | 0.00 | 68 | 1016.1 | |
| 20260505122518 | 38 | 0.0 | 0.0 | 0.00 | 0.00 | 0.00 | 67 | 1016.0 | |
| 20260505121517 | 38 | 0.0 | 0.0 | 0.00 | 0.00 | 0.00 | 68 | 1016.0 | |
| 20260505120537 | 38 | 0.0 | 0.0 | 0.00 | 0.00 | 0.00 | 66 | 1016.0 | |
| 20260505115519 | 38 | 0.0 | 0.0 | 0.00 | 0.00 | 0.00 | 66 | 1015.9 | |
| 20260505114518 | 39 | 325 | 0.0 | 0.9 | 0.00 | 0.00 | 0.00 | 65 | 1015.9 |
| 20260505113517 | 39 | 325 | 0.0 | 1.7 | 0.00 | 0.00 | 0.00 | 68 | 1015.9 |
| 20260505112517 | 39 | 325 | 0.9 | 1.7 | 0.00 | 0.00 | 0.00 | 65 | 1015.8 |
| 20260505111517 | 40 | 325 | 0.9 | 1.7 | 0.00 | 0.00 | 0.00 | 65 | 1015.9 |
| 20260505110516 | 40 | 325 | 0.9 | 1.7 | 0.00 | 0.00 | 0.00 | 64 | 1015.8 |
| 20260505101516 | 41 | 325 | 0.9 | 1.7 | 0.00 | 0.00 | 0.00 | 56 | 1015.6 |
| 20260505100518 | 41 | 325 | 0.0 | 0.9 | 0.00 | 0.00 | 0.00 | 57 | 1015.6 |
| 20260505095516 | 42 | 0.0 | 0.0 | 0.00 | 0.00 | 0.00 | 56 | 1015.6 | |
| 20260505094539 | 42 | 325 | 0.9 | 1.7 | 0.00 | 0.00 | 0.00 | 56 | 1015.5 |
| 20260505093517 | 42 | 325 | 0.9 | 1.7 | 0.00 | 0.00 | 0.00 | 57 | 1015.6 |
| 20260505092517 | 41 | 0.0 | 0.0 | 0.00 | 0.00 | 0.00 | 57 | 1015.6 | |
| 20260505091517 | 41 | 325 | 0.0 | 0.9 | 0.00 | 0.00 | 0.00 | 56 | 1015.5 |
| 20260505090519 | 42 | 0.0 | 0.0 | 0.00 | 0.00 | 0.00 | 56 | 1015.5 | |
| 20260505085518 | 42 | 0.0 | 0.0 | 0.00 | 0.00 | 0.00 | 55 | 1015.5 | |
| 20260505084537 | 42 | 0.0 | 0.0 | 0.00 | 0.00 | 0.00 | 56 | 1015.5 | |
| 20260505083519 | 43 | 325 | 0.0 | 0.9 | 0.00 | 0.00 | 0.00 | 55 | 1015.5 |
| 20260505082518 | 44 | 325 | 0.0 | 0.9 | 0.00 | 0.00 | 0.00 | 54 | 1015.4 |
| 20260505081517 | 44 | 325 | 0.0 | 1.7 | 0.00 | 0.00 | 0.00 | 54 | 1015.4 |
| 20260505080517 | 44 | 0.0 | 0.0 | 0.00 | 0.00 | 0.00 | 53 | 1015.4 | |
| 20260505075516 | 45 | 0.0 | 0.0 | 0.00 | 0.00 | 0.00 | 50 | 1015.4 | |
| 20260505074516 | 45 | 0.0 | 0.0 | 0.00 | 0.00 | 0.00 | 49 | 1015.5 | |
| 20260505073516 | 46 | 0.0 | 0.0 | 0.00 | 0.00 | 0.00 | 45 | 1015.5 | |
| 20260505072518 | 47 | 0.0 | 0.0 | 0.00 | 0.00 | 0.00 | 49 | 1015.5 | |
| 20260505071519 | 48 | 0.0 | 0.0 | 0.00 | 0.00 | 0.00 | 49 | 1015.4 | |
| 20260505070516 | 48 | 325 | 0.0 | 1.7 | 0.00 | 0.00 | 0.00 | 47 | 1015.3 |
| 20260505065516 | 49 | 325 | 0.0 | 1.7 | 0.00 | 0.00 | 0.00 | 46 | 1015.0 |
| 20260505064517 | 50 | 0.0 | 0.0 | 0.00 | 0.00 | 0.00 | 45 | 1015.1 | |
| 20260505063517 | 51 | 0.0 | 0.0 | 0.00 | 0.00 | 0.00 | 46 | 1014.9 | |
| 20260505062518 | 53 | 0.0 | 0.0 | 0.00 | 0.00 | 0.00 | 43 | 1014.9 | |
| 20260505061518 | 54 | 0.0 | 0.0 | 0.00 | 0.00 | 0.00 | 42 | 1014.9 | |
| 20260505060516 | 55 | 0.0 | 0.0 | 0.00 | 0.00 | 0.00 | 41 | 1014.9 |